sensor_id;sensor_type;location;lat;lon;timestamp;P1;durP1;ratioP1;P2;durP2;ratioP2
26020;SDS011;13798;48.858;9.092;2023-11-21T05:03:11;4.00;;;2.00;;
26020;SDS011;13798;48.858;9.092;2023-11-21T05:05:37;4.93;;;2.17;;
26020;SDS011;13798;48.858;9.092;2023-11-21T05:08:02;4.47;;;2.07;;
26020;SDS011;13798;48.858;9.092;2023-11-21T05:10:28;2.72;;;1.90;;
26020;SDS011;13798;48.858;9.092;2023-11-21T05:12:55;4.20;;;2.15;;
26020;SDS011;13798;48.858;9.092;2023-11-21T05:15:20;4.73;;;2.00;;
26020;SDS011;13798;48.858;9.092;2023-11-21T05:17:46;3.67;;;2.15;;
26020;SDS011;13798;48.858;9.092;2023-11-21T05:20:15;3.47;;;2.27;;
26020;SDS011;13798;48.858;9.092;2023-11-21T05:22:48;3.78;;;2.58;;
26020;SDS011;13798;48.858;9.092;2023-11-21T05:25:14;6.43;;;2.75;;
26020;SDS011;13798;48.858;9.092;2023-11-21T05:27:43;5.07;;;3.00;;
26020;SDS011;13798;48.858;9.092;2023-11-21T05:30:13;4.72;;;2.53;;
26020;SDS011;13798;48.858;9.092;2023-11-21T05:32:39;3.67;;;2.67;;
26020;SDS011;13798;48.858;9.092;2023-11-21T05:35:07;4.30;;;2.92;;
26020;SDS011;13798;48.858;9.092;2023-11-21T05:37:36;4.30;;;2.50;;
26020;SDS011;13798;48.858;9.092;2023-11-21T05:40:03;5.53;;;3.80;;
26020;SDS011;13798;48.858;9.092;2023-11-21T06:14:41;4.35;;;2.72;;
26020;SDS011;13798;48.858;9.092;2023-11-21T06:17:06;2.73;;;2.50;;
26020;SDS011;13798;48.858;9.092;2023-11-21T06:19:32;2.75;;;2.05;;
26020;SDS011;13798;48.858;9.092;2023-11-21T06:21:57;3.17;;;2.13;;
26020;SDS011;13798;48.858;9.092;2023-11-21T06:24:23;4.40;;;2.50;;
26020;SDS011;13798;48.858;9.092;2023-11-21T06:26:48;3.60;;;2.20;;
26020;SDS011;13798;48.858;9.092;2023-11-21T06:29:14;4.80;;;2.25;;
26020;SDS011;13798;48.858;9.092;2023-11-21T06:31:40;4.53;;;2.30;;
26020;SDS011;13798;48.858;9.092;2023-11-21T06:34:05;4.53;;;2.60;;
26020;SDS011;13798;48.858;9.092;2023-11-21T06:36:31;4.05;;;2.28;;
26020;SDS011;13798;48.858;9.092;2023-11-21T06:38:56;4.30;;;2.40;;
26020;SDS011;13798;48.858;9.092;2023-11-21T06:41:22;2.92;;;2.60;;
26020;SDS011;13798;48.858;9.092;2023-11-21T06:43:48;3.78;;;2.80;;
26020;SDS011;13798;48.858;9.092;2023-11-21T06:46:14;4.00;;;3.50;;
26020;SDS011;13798;48.858;9.092;2023-11-21T06:48:41;5.45;;;3.35;;
26020;SDS011;13798;48.858;9.092;2023-11-21T06:51:07;4.80;;;3.58;;
26020;SDS011;13798;48.858;9.092;2023-11-21T06:53:33;4.85;;;3.55;;
26020;SDS011;13798;48.858;9.092;2023-11-21T06:55:59;5.95;;;3.67;;
26020;SDS011;13798;48.858;9.092;2023-11-21T06:58:24;3.43;;;2.80;;
26020;SDS011;13798;48.858;9.092;2023-11-21T07:00:50;5.50;;;2.78;;
26020;SDS011;13798;48.858;9.092;2023-11-21T07:03:15;4.77;;;2.93;;
26020;SDS011;13798;48.858;9.092;2023-11-21T07:05:41;5.65;;;4.30;;
26020;SDS011;13798;48.858;9.092;2023-11-21T07:08:06;5.13;;;3.53;;
26020;SDS011;13798;48.858;9.092;2023-11-21T07:10:32;6.40;;;4.50;;
26020;SDS011;13798;48.858;9.092;2023-11-21T07:12:58;5.50;;;3.70;;
26020;SDS011;13798;48.858;9.092;2023-11-21T07:15:23;5.43;;;3.53;;
26020;SDS011;13798;48.858;9.092;2023-11-21T07:17:50;3.30;;;3.00;;
26020;SDS011;13798;48.858;9.092;2023-11-21T07:20:18;4.70;;;3.65;;
26020;SDS011;13798;48.858;9.092;2023-11-21T07:22:44;5.05;;;4.20;;
26020;SDS011;13798;48.858;9.092;2023-11-21T07:25:10;7.28;;;4.75;;
26020;SDS011;13798;48.858;9.092;2023-11-21T07:27:36;4.30;;;3.83;;
26020;SDS011;13798;48.858;9.092;2023-11-21T07:30:02;4.82;;;3.50;;
26020;SDS011;13798;48.858;9.092;2023-11-21T07:32:32;8.70;;;6.38;;
26020;SDS011;13798;48.858;9.092;2023-11-21T07:34:58;5.72;;;4.10;;
26020;SDS011;13798;48.858;9.092;2023-11-21T07:37:26;4.90;;;2.90;;
26020;SDS011;13798;48.858;9.092;2023-11-21T07:39:53;4.53;;;2.90;;
26020;SDS011;13798;48.858;9.092;2023-11-21T07:42:21;4.40;;;2.63;;
26020;SDS011;13798;48.858;9.092;2023-11-21T07:44:51;5.20;;;3.10;;
26020;SDS011;13798;48.858;9.092;2023-11-21T07:47:17;4.53;;;3.00;;
26020;SDS011;13798;48.858;9.092;2023-11-21T07:49:42;5.83;;;2.90;;
26020;SDS011;13798;48.858;9.092;2023-11-21T07:52:09;6.97;;;3.05;;
26020;SDS011;13798;48.858;9.092;2023-11-21T07:54:35;3.90;;;2.70;;
26020;SDS011;13798;48.858;9.092;2023-11-21T07:57:01;4.93;;;3.30;;
26020;SDS011;13798;48.858;9.092;2023-11-21T07:59:29;3.80;;;2.80;;
26020;SDS011;13798;48.858;9.092;2023-11-21T08:01:54;6.23;;;2.67;;
26020;SDS011;13798;48.858;9.092;2023-11-21T08:04:20;4.15;;;2.92;;
26020;SDS011;13798;48.858;9.092;2023-11-21T08:06:45;3.97;;;2.37;;
26020;SDS011;13798;48.858;9.092;2023-11-21T08:09:11;2.72;;;2.53;;
26020;SDS011;13798;48.858;9.092;2023-11-21T08:11:37;4.72;;;2.42;;
26020;SDS011;13798;48.858;9.092;2023-11-21T08:14:03;3.58;;;2.92;;
26020;SDS011;13798;48.858;9.092;2023-11-21T08:16:30;7.18;;;2.92;;
26020;SDS011;13798;48.858;9.092;2023-11-21T08:18:55;4.20;;;2.95;;
26020;SDS011;13798;48.858;9.092;2023-11-21T08:21:21;5.63;;;2.60;;
26020;SDS011;13798;48.858;9.092;2023-11-21T08:23:49;5.22;;;2.50;;
26020;SDS011;13798;48.858;9.092;2023-11-21T08:26:19;5.20;;;3.25;;
26020;SDS011;13798;48.858;9.092;2023-11-21T08:28:45;6.95;;;3.50;;
26020;SDS011;13798;48.858;9.092;2023-11-21T08:31:10;8.98;;;4.32;;
26020;SDS011;13798;48.858;9.092;2023-11-21T08:33:36;8.13;;;4.93;;
26020;SDS011;13798;48.858;9.092;2023-11-21T08:36:06;7.72;;;4.72;;
26020;SDS011;13798;48.858;9.092;2023-11-21T08:38:32;6.53;;;3.75;;
26020;SDS011;13798;48.858;9.092;2023-11-21T08:40:58;6.90;;;4.05;;
26020;SDS011;13798;48.858;9.092;2023-11-21T08:43:25;6.80;;;4.15;;
26020;SDS011;13798;48.858;9.092;2023-11-21T08:45:52;6.18;;;2.97;;
26020;SDS011;13798;48.858;9.092;2023-11-21T08:48:17;7.27;;;3.97;;
26020;SDS011;13798;48.858;9.092;2023-11-21T08:50:43;10.10;;;4.00;;
26020;SDS011;13798;48.858;9.092;2023-11-21T08:53:08;10.07;;;5.67;;
26020;SDS011;13798;48.858;9.092;2023-11-21T08:55:36;10.30;;;6.22;;
26020;SDS011;13798;48.858;9.092;2023-11-21T08:58:02;4.70;;;2.83;;
26020;SDS011;13798;48.858;9.092;2023-11-21T09:00:30;3.90;;;3.08;;
26020;SDS011;13798;48.858;9.092;2023-11-21T09:02:56;6.90;;;3.70;;
26020;SDS011;13798;48.858;9.092;2023-11-21T09:05:22;5.75;;;4.20;;
26020;SDS011;13798;48.858;9.092;2023-11-21T09:07:48;4.40;;;3.90;;
26020;SDS011;13798;48.858;9.092;2023-11-21T09:10:14;6.63;;;3.22;;
26020;SDS011;13798;48.858;9.092;2023-11-21T09:12:39;5.72;;;3.78;;
26020;SDS011;13798;48.858;9.092;2023-11-21T09:15:05;8.20;;;5.13;;
26020;SDS011;13798;48.858;9.092;2023-11-21T09:17:32;8.07;;;4.38;;
26020;SDS011;13798;48.858;9.092;2023-11-21T09:19:59;4.80;;;3.10;;
26020;SDS011;13798;48.858;9.092;2023-11-21T09:22:25;4.35;;;2.88;;
26020;SDS011;13798;48.858;9.092;2023-11-21T09:24:51;6.05;;;3.30;;
26020;SDS011;13798;48.858;9.092;2023-11-21T09:27:17;3.33;;;1.85;;
26020;SDS011;13798;48.858;9.092;2023-11-21T09:29:42;3.63;;;2.72;;
26020;SDS011;13798;48.858;9.092;2023-11-21T09:32:08;3.45;;;2.88;;
26020;SDS011;13798;48.858;9.092;2023-11-21T09:34:37;3.72;;;2.67;;
26020;SDS011;13798;48.858;9.092;2023-11-21T09:37:03;4.55;;;3.53;;
26020;SDS011;13798;48.858;9.092;2023-11-21T09:39:30;4.65;;;3.10;;
26020;SDS011;13798;48.858;9.092;2023-11-21T09:42:17;3.00;;;2.57;;
26020;SDS011;13798;48.858;9.092;2023-11-21T09:47:16;4.80;;;3.17;;
26020;SDS011;13798;48.858;9.092;2023-11-21T09:49:43;5.10;;;2.53;;
26020;SDS011;13798;48.858;9.092;2023-11-21T09:52:21;2.08;;;1.88;;
26020;SDS011;13798;48.858;9.092;2023-11-21T09:54:50;3.28;;;2.30;;
26020;SDS011;13798;48.858;9.092;2023-11-21T09:57:17;3.95;;;2.38;;
26020;SDS011;13798;48.858;9.092;2023-11-21T09:59:52;3.77;;;2.20;;
26020;SDS011;13798;48.858;9.092;2023-11-21T10:02:24;4.35;;;2.70;;
26020;SDS011;13798;48.858;9.092;2023-11-21T10:04:53;3.70;;;2.53;;
26020;SDS011;13798;48.858;9.092;2023-11-21T10:07:19;3.20;;;2.00;;
26020;SDS011;13798;48.858;9.092;2023-11-21T10:09:46;4.43;;;3.92;;
26020;SDS011;13798;48.858;9.092;2023-11-21T10:12:13;3.03;;;2.73;;
26020;SDS011;13798;48.858;9.092;2023-11-21T10:14:41;3.13;;;2.50;;
26020;SDS011;13798;48.858;9.092;2023-11-21T10:17:08;2.35;;;2.10;;
26020;SDS011;13798;48.858;9.092;2023-11-21T10:19:37;3.50;;;2.03;;
26020;SDS011;13798;48.858;9.092;2023-11-21T10:22:04;3.30;;;2.20;;
26020;SDS011;13798;48.858;9.092;2023-11-21T10:24:32;2.03;;;1.83;;
26020;SDS011;13798;48.858;9.092;2023-11-21T10:26:57;2.10;;;1.70;;
26020;SDS011;13798;48.858;9.092;2023-11-21T10:29:23;2.45;;;1.80;;
26020;SDS011;13798;48.858;9.092;2023-11-21T10:31:49;1.83;;;1.63;;
26020;SDS011;13798;48.858;9.092;2023-11-21T10:34:19;2.03;;;1.60;;
26020;SDS011;13798;48.858;9.092;2023-11-21T10:36:45;2.30;;;1.88;;
26020;SDS011;13798;48.858;9.092;2023-11-21T10:39:18;3.33;;;1.98;;
26020;SDS011;13798;48.858;9.092;2023-11-21T10:41:44;2.50;;;1.60;;
26020;SDS011;13798;48.858;9.092;2023-11-21T10:44:14;3.20;;;2.05;;
26020;SDS011;13798;48.858;9.092;2023-11-21T10:46:51;2.90;;;1.90;;
26020;SDS011;13798;48.858;9.092;2023-11-21T10:49:21;2.28;;;2.03;;
26020;SDS011;13798;48.858;9.092;2023-11-21T10:51:49;2.20;;;1.90;;
26020;SDS011;13798;48.858;9.092;2023-11-21T10:54:20;9.77;;;2.65;;
26020;SDS011;13798;48.858;9.092;2023-11-21T10:56:48;3.42;;;2.33;;
26020;SDS011;13798;48.858;9.092;2023-11-21T10:59:16;2.47;;;2.28;;
26020;SDS011;13798;48.858;9.092;2023-11-21T11:01:43;4.37;;;2.87;;
26020;SDS011;13798;48.858;9.092;2023-11-21T11:04:11;2.22;;;1.90;;
26020;SDS011;13798;48.858;9.092;2023-11-21T11:06:42;3.07;;;2.30;;
26020;SDS011;13798;48.858;9.092;2023-11-21T11:09:10;2.42;;;2.22;;
26020;SDS011;13798;48.858;9.092;2023-11-21T11:11:41;2.47;;;2.20;;
26020;SDS011;13798;48.858;9.092;2023-11-21T11:14:10;3.40;;;2.50;;
26020;SDS011;13798;48.858;9.092;2023-11-21T11:16:38;3.05;;;2.00;;
26020;SDS011;13798;48.858;9.092;2023-11-21T11:19:08;1.77;;;1.67;;
26020;SDS011;13798;48.858;9.092;2023-11-21T11:21:43;2.35;;;1.98;;
26020;SDS011;13798;48.858;9.092;2023-11-21T11:24:36;2.83;;;1.73;;
26020;SDS011;13798;48.858;9.092;2023-11-21T11:30:20;1.60;;;1.50;;
26020;SDS011;13798;48.858;9.092;2023-11-21T11:38:10;1.52;;;1.33;;
26020;SDS011;13798;48.858;9.092;2023-11-21T11:40:45;1.52;;;1.42;;
26020;SDS011;13798;48.858;9.092;2023-11-21T11:43:11;1.40;;;1.30;;
26020;SDS011;13798;48.858;9.092;2023-11-21T11:45:37;1.80;;;1.70;;
26020;SDS011;13798;48.858;9.092;2023-11-21T11:48:10;2.25;;;1.73;;
26020;SDS011;13798;48.858;9.092;2023-11-21T11:50:41;2.17;;;1.70;;
26020;SDS011;13798;48.858;9.092;2023-11-21T11:53:28;1.30;;;1.20;;
26020;SDS011;13798;48.858;9.092;2023-11-21T11:56:18;1.00;;;1.00;;
26020;SDS011;13798;48.858;9.092;2023-11-21T11:58:52;1.40;;;1.30;;
26020;SDS011;13798;48.858;9.092;2023-11-21T12:01:19;1.52;;;1.02;;
26020;SDS011;13798;48.858;9.092;2023-11-21T12:04:01;2.15;;;1.50;;
26020;SDS011;13798;48.858;9.092;2023-11-21T12:06:42;1.23;;;1.20;;
26020;SDS011;13798;48.858;9.092;2023-11-21T12:09:19;1.38;;;1.30;;
26020;SDS011;13798;48.858;9.092;2023-11-21T12:11:46;3.30;;;1.60;;
26020;SDS011;13798;48.858;9.092;2023-11-21T12:14:13;1.83;;;1.47;;
26020;SDS011;13798;48.858;9.092;2023-11-21T12:16:40;1.50;;;1.40;;
26020;SDS011;13798;48.858;9.092;2023-11-21T12:19:07;2.13;;;2.00;;
26020;SDS011;13798;48.858;9.092;2023-11-21T12:21:33;2.50;;;2.30;;
26020;SDS011;13798;48.858;9.092;2023-11-21T12:23:59;3.47;;;3.17;;
26020;SDS011;13798;48.858;9.092;2023-11-21T12:26:25;2.60;;;2.45;;
26020;SDS011;13798;48.858;9.092;2023-11-21T12:28:53;2.57;;;2.37;;
26020;SDS011;13798;48.858;9.092;2023-11-21T12:31:22;2.90;;;2.70;;
26020;SDS011;13798;48.858;9.092;2023-11-21T12:33:48;3.13;;;2.92;;
26020;SDS011;13798;48.858;9.092;2023-11-21T12:36:13;3.53;;;3.03;;
26020;SDS011;13798;48.858;9.092;2023-11-21T12:38:39;7.22;;;6.57;;
26020;SDS011;13798;48.858;9.092;2023-11-21T12:41:07;4.07;;;3.67;;
26020;SDS011;13798;48.858;9.092;2023-11-21T12:43:35;4.80;;;4.30;;
26020;SDS011;13798;48.858;9.092;2023-11-21T12:46:07;4.10;;;3.63;;
26020;SDS011;13798;48.858;9.092;2023-11-21T12:48:38;3.50;;;3.10;;
26020;SDS011;13798;48.858;9.092;2023-11-21T12:51:07;3.40;;;2.23;;
26020;SDS011;13798;48.858;9.092;2023-11-21T12:53:33;4.23;;;1.60;;
26020;SDS011;13798;48.858;9.092;2023-11-21T12:56:06;2.55;;;1.38;;
26020;SDS011;13798;48.858;9.092;2023-11-21T12:58:34;1.42;;;1.33;;
26020;SDS011;13798;48.858;9.092;2023-11-21T13:01:00;2.57;;;0.97;;
26020;SDS011;13798;48.858;9.092;2023-11-21T13:03:29;1.40;;;1.00;;
26020;SDS011;13798;48.858;9.092;2023-11-21T13:05:55;1.45;;;1.20;;
26020;SDS011;13798;48.858;9.092;2023-11-21T13:08:22;2.10;;;1.30;;
26020;SDS011;13798;48.858;9.092;2023-11-21T13:10:50;1.90;;;1.40;;
26020;SDS011;13798;48.858;9.092;2023-11-21T13:13:21;2.72;;;1.50;;
26020;SDS011;13798;48.858;9.092;2023-11-21T13:15:48;1.70;;;1.30;;
26020;SDS011;13798;48.858;9.092;2023-11-21T13:18:21;1.55;;;1.40;;
26020;SDS011;13798;48.858;9.092;2023-11-21T13:20:52;1.58;;;1.48;;
26020;SDS011;13798;48.858;9.092;2023-11-21T13:23:18;1.58;;;1.45;;
26020;SDS011;13798;48.858;9.092;2023-11-21T13:25:44;2.42;;;1.63;;
26020;SDS011;13798;48.858;9.092;2023-11-21T13:28:13;3.92;;;1.98;;
26020;SDS011;13798;48.858;9.092;2023-11-21T13:30:45;2.30;;;1.98;;
26020;SDS011;13798;48.858;9.092;2023-11-21T13:33:11;4.55;;;2.00;;
26020;SDS011;13798;48.858;9.092;2023-11-21T13:35:43;2.60;;;2.00;;
26020;SDS011;13798;48.858;9.092;2023-11-21T13:38:13;3.50;;;2.10;;
26020;SDS011;13798;48.858;9.092;2023-11-21T13:40:42;3.42;;;2.08;;
26020;SDS011;13798;48.858;9.092;2023-11-21T13:43:14;3.75;;;2.30;;
26020;SDS011;13798;48.858;9.092;2023-11-21T13:45:43;3.33;;;2.30;;
26020;SDS011;13798;48.858;9.092;2023-11-21T13:48:10;4.68;;;2.58;;
26020;SDS011;13798;48.858;9.092;2023-11-21T13:50:41;3.65;;;2.25;;
26020;SDS011;13798;48.858;9.092;2023-11-21T13:53:34;6.07;;;2.33;;
26020;SDS011;13798;48.858;9.092;2023-11-21T13:56:02;3.67;;;2.40;;
26020;SDS011;13798;48.858;9.092;2023-11-21T13:58:29;3.22;;;2.05;;
26020;SDS011;13798;48.858;9.092;2023-11-21T14:01:15;3.63;;;2.17;;
26020;SDS011;13798;48.858;9.092;2023-11-21T14:03:59;3.08;;;2.22;;
26020;SDS011;13798;48.858;9.092;2023-11-21T14:06:34;3.83;;;2.05;;
26020;SDS011;13798;48.858;9.092;2023-11-21T14:09:10;3.88;;;2.10;;
26020;SDS011;13798;48.858;9.092;2023-11-21T14:11:38;3.42;;;2.33;;
26020;SDS011;13798;48.858;9.092;2023-11-21T14:14:04;5.33;;;2.40;;
26020;SDS011;13798;48.858;9.092;2023-11-21T14:16:30;4.77;;;2.00;;
26020;SDS011;13798;48.858;9.092;2023-11-21T14:18:56;3.93;;;2.30;;
26020;SDS011;13798;48.858;9.092;2023-11-21T14:21:28;6.30;;;2.65;;
26020;SDS011;13798;48.858;9.092;2023-11-21T14:23:54;5.13;;;2.50;;
26020;SDS011;13798;48.858;9.092;2023-11-21T14:26:20;6.00;;;2.47;;
26020;SDS011;13798;48.858;9.092;2023-11-21T14:28:46;5.05;;;2.78;;
26020;SDS011;13798;48.858;9.092;2023-11-21T14:31:14;4.18;;;2.40;;
26020;SDS011;13798;48.858;9.092;2023-11-21T14:33:42;3.38;;;2.38;;
26020;SDS011;13798;48.858;9.092;2023-11-21T16:50:40;6.57;;;5.95;;
26020;SDS011;13798;48.858;9.092;2023-11-21T16:53:08;6.20;;;5.70;;
26020;SDS011;13798;48.858;9.092;2023-11-21T16:55:34;7.45;;;6.75;;
26020;SDS011;13798;48.858;9.092;2023-11-21T16:57:59;7.97;;;7.27;;
26020;SDS011;13798;48.858;9.092;2023-11-21T17:00:25;7.55;;;6.90;;
26020;SDS011;13798;48.858;9.092;2023-11-21T17:02:51;9.07;;;7.53;;
26020;SDS011;13798;48.858;9.092;2023-11-21T17:05:17;12.15;;;10.38;;
26020;SDS011;13798;48.858;9.092;2023-11-21T17:07:44;9.80;;;8.80;;
26020;SDS011;13798;48.858;9.092;2023-11-21T17:10:11;8.70;;;7.80;;
26020;SDS011;13798;48.858;9.092;2023-11-21T17:12:37;10.80;;;8.73;;
26020;SDS011;13798;48.858;9.092;2023-11-21T17:15:03;9.95;;;9.05;;
26020;SDS011;13798;48.858;9.092;2023-11-21T17:17:29;11.40;;;9.25;;
26020;SDS011;13798;48.858;9.092;2023-11-21T17:19:55;9.98;;;8.38;;
26020;SDS011;13798;48.858;9.092;2023-11-21T17:22:21;12.15;;;8.68;;
26020;SDS011;13798;48.858;9.092;2023-11-21T17:24:49;8.38;;;7.57;;
26020;SDS011;13798;48.858;9.092;2023-11-21T17:27:15;8.60;;;7.75;;
26020;SDS011;13798;48.858;9.092;2023-11-21T17:29:40;9.63;;;8.23;;
26020;SDS011;13798;48.858;9.092;2023-11-21T17:32:06;10.93;;;8.40;;
26020;SDS011;13798;48.858;9.092;2023-11-21T17:34:31;8.80;;;7.85;;
26020;SDS011;13798;48.858;9.092;2023-11-21T17:36:57;8.93;;;8.07;;
26020;SDS011;13798;48.858;9.092;2023-11-21T17:39:22;8.40;;;7.50;;
26020;SDS011;13798;48.858;9.092;2023-11-21T17:41:48;8.20;;;7.18;;
26020;SDS011;13798;48.858;9.092;2023-11-21T17:44:14;8.50;;;7.68;;
26020;SDS011;13798;48.858;9.092;2023-11-21T17:46:40;8.93;;;8.13;;
26020;SDS011;13798;48.858;9.092;2023-11-21T17:49:06;8.77;;;7.88;;
26020;SDS011;13798;48.858;9.092;2023-11-21T17:51:37;9.77;;;8.77;;
26020;SDS011;13798;48.858;9.092;2023-11-21T17:54:04;10.70;;;9.60;;
26020;SDS011;13798;48.858;9.092;2023-11-21T17:56:31;9.57;;;8.57;;
26020;SDS011;13798;48.858;9.092;2023-11-21T17:58:57;9.50;;;8.60;;
26020;SDS011;13798;48.858;9.092;2023-11-21T18:01:23;11.23;;;10.13;;
26020;SDS011;13798;48.858;9.092;2023-11-21T18:03:55;26.48;;;20.13;;
26020;SDS011;13798;48.858;9.092;2023-11-21T18:06:21;44.17;;;30.60;;
26020;SDS011;13798;48.858;9.092;2023-11-21T18:08:46;33.23;;;24.87;;
26020;SDS011;13798;48.858;9.092;2023-11-21T18:11:12;21.17;;;16.58;;
26020;SDS011;13798;48.858;9.092;2023-11-21T18:13:38;14.95;;;11.60;;
26020;SDS011;13798;48.858;9.092;2023-11-21T18:16:05;12.88;;;11.68;;
26020;SDS011;13798;48.858;9.092;2023-11-21T18:18:32;18.17;;;16.27;;
26020;SDS011;13798;48.858;9.092;2023-11-21T18:21:01;14.13;;;12.73;;
26020;SDS011;13798;48.858;9.092;2023-11-21T18:23:32;10.60;;;9.60;;
26020;SDS011;13798;48.858;9.092;2023-11-21T18:25:59;9.50;;;8.70;;
26020;SDS011;13798;48.858;9.092;2023-11-21T18:28:24;9.27;;;8.37;;
26020;SDS011;13798;48.858;9.092;2023-11-21T18:30:53;9.13;;;7.95;;
26020;SDS011;13798;48.858;9.092;2023-11-21T18:33:18;10.27;;;9.27;;
26020;SDS011;13798;48.858;9.092;2023-11-21T18:35:44;10.23;;;8.90;;
26020;SDS011;13798;48.858;9.092;2023-11-21T18:38:10;9.65;;;8.73;;
26020;SDS011;13798;48.858;9.092;2023-11-21T18:40:37;10.07;;;9.13;;
26020;SDS011;13798;48.858;9.092;2023-11-21T18:43:02;9.60;;;8.60;;
26020;SDS011;13798;48.858;9.092;2023-11-21T18:45:28;9.40;;;8.50;;
26020;SDS011;13798;48.858;9.092;2023-11-21T18:47:53;9.15;;;8.25;;
26020;SDS011;13798;48.858;9.092;2023-11-21T18:50:19;9.15;;;8.23;;
26020;SDS011;13798;48.858;9.092;2023-11-21T18:52:46;10.50;;;8.93;;
26020;SDS011;13798;48.858;9.092;2023-11-21T18:55:15;10.10;;;8.50;;
26020;SDS011;13798;48.858;9.092;2023-11-21T18:57:44;8.57;;;7.72;;
26020;SDS011;13798;48.858;9.092;2023-11-21T19:00:11;9.40;;;8.32;;
26020;SDS011;13798;48.858;9.092;2023-11-21T19:02:39;9.57;;;8.68;;
26020;SDS011;13798;48.858;9.092;2023-11-21T19:05:07;10.48;;;8.60;;
26020;SDS011;13798;48.858;9.092;2023-11-21T19:07:33;9.57;;;8.57;;
26020;SDS011;13798;48.858;9.092;2023-11-21T19:10:01;11.90;;;8.40;;
26020;SDS011;13798;48.858;9.092;2023-11-21T19:12:29;8.93;;;7.90;;
26020;SDS011;13798;48.858;9.092;2023-11-21T19:14:59;9.48;;;8.50;;
26020;SDS011;13798;48.858;9.092;2023-11-21T19:17:24;14.02;;;9.15;;
26020;SDS011;13798;48.858;9.092;2023-11-21T19:19:50;10.13;;;8.80;;
26020;SDS011;13798;48.858;9.092;2023-11-21T19:22:15;11.37;;;10.17;;
26020;SDS011;13798;48.858;9.092;2023-11-21T19:24:41;16.90;;;14.27;;
26020;SDS011;13798;48.858;9.092;2023-11-21T19:27:07;14.88;;;12.07;;
26020;SDS011;13798;48.858;9.092;2023-11-21T19:29:32;11.70;;;10.50;;
26020;SDS011;13798;48.858;9.092;2023-11-21T19:31:59;13.43;;;12.02;;
26020;SDS011;13798;48.858;9.092;2023-11-21T19:34:25;15.27;;;11.73;;
26020;SDS011;13798;48.858;9.092;2023-11-21T19:36:51;11.53;;;10.43;;
26020;SDS011;13798;48.858;9.092;2023-11-21T19:39:16;21.60;;;16.73;;
26020;SDS011;13798;48.858;9.092;2023-11-21T19:41:43;25.58;;;19.70;;
26020;SDS011;13798;48.858;9.092;2023-11-21T19:44:08;16.30;;;12.63;;
26020;SDS011;13798;48.858;9.092;2023-11-21T19:46:34;17.17;;;12.67;;
26020;SDS011;13798;48.858;9.092;2023-11-21T19:49:00;18.58;;;15.32;;
26020;SDS011;13798;48.858;9.092;2023-11-21T19:51:27;20.13;;;13.70;;
26020;SDS011;13798;48.858;9.092;2023-11-21T19:53:52;21.17;;;14.53;;
26020;SDS011;13798;48.858;9.092;2023-11-21T19:56:19;20.73;;;13.68;;
26020;SDS011;13798;48.858;9.092;2023-11-21T19:58:45;19.10;;;13.75;;
26020;SDS011;13798;48.858;9.092;2023-11-21T20:01:11;18.52;;;14.70;;
26020;SDS011;13798;48.858;9.092;2023-11-21T20:03:37;17.70;;;14.30;;
26020;SDS011;13798;48.858;9.092;2023-11-21T20:06:03;20.30;;;14.33;;
26020;SDS011;13798;48.858;9.092;2023-11-21T20:08:30;18.55;;;13.13;;
26020;SDS011;13798;48.858;9.092;2023-11-21T20:10:57;19.67;;;14.18;;
26020;SDS011;13798;48.858;9.092;2023-11-21T20:13:23;23.45;;;14.40;;
26020;SDS011;13798;48.858;9.092;2023-11-21T20:15:48;21.65;;;14.07;;
26020;SDS011;13798;48.858;9.092;2023-11-21T20:18:14;19.57;;;13.30;;
26020;SDS011;13798;48.858;9.092;2023-11-21T20:20:39;18.07;;;12.43;;
26020;SDS011;13798;48.858;9.092;2023-11-21T20:26:09;20.13;;;12.00;;
26020;SDS011;13798;48.858;9.092;2023-11-21T20:29:23;16.42;;;11.88;;
26020;SDS011;13798;48.858;9.092;2023-11-21T20:32:23;24.63;;;15.45;;
26020;SDS011;13798;48.858;9.092;2023-11-21T20:34:52;21.10;;;14.77;;
26020;SDS011;13798;48.858;9.092;2023-11-21T20:37:39;18.92;;;12.40;;
26020;SDS011;13798;48.858;9.092;2023-11-21T20:41:05;15.85;;;11.70;;
26020;SDS011;13798;48.858;9.092;2023-11-21T20:43:44;17.85;;;11.32;;
26020;SDS011;13798;48.858;9.092;2023-11-21T20:46:47;18.58;;;11.93;;
26020;SDS011;13798;48.858;9.092;2023-11-21T20:52:25;17.20;;;12.63;;
